sensor_id;sensor_type;location;lat;lon;timestamp;pressure;altitude;pressure_sealevel;temperature;humidity
6500;BME280;3283;52.330;9.772;2024-03-23T00:53:46;99355.78;;;4.77;100.00
6500;BME280;3283;52.330;9.772;2024-03-23T00:56:11;99345.38;;;4.75;100.00
6500;BME280;3283;52.330;9.772;2024-03-23T00:58:36;99334.13;;;4.70;100.00
6500;BME280;3283;52.330;9.772;2024-03-23T01:01:02;99338.44;;;4.74;100.00
6500;BME280;3283;52.330;9.772;2024-03-23T01:03:29;99338.44;;;4.74;100.00
6500;BME280;3283;52.330;9.772;2024-03-23T01:05:59;99345.38;;;4.74;100.00
6500;BME280;3283;52.330;9.772;2024-03-23T01:08:24;99337.56;;;4.75;100.00
6500;BME280;3283;52.330;9.772;2024-03-23T01:10:57;99334.13;;;4.70;100.00
6500;BME280;3283;52.330;9.772;2024-03-23T01:13:22;99333.22;;;4.74;100.00
6500;BME280;3283;52.330;9.772;2024-03-23T01:15:52;99323.66;;;4.75;100.00
6500;BME280;3283;52.330;9.772;2024-03-23T01:18:19;99317.63;;;4.69;100.00
6500;BME280;3283;52.330;9.772;2024-03-23T01:20:44;99314.13;;;4.71;100.00
6500;BME280;3283;52.330;9.772;2024-03-23T01:23:10;99310.66;;;4.70;100.00
6500;BME280;3283;52.330;9.772;2024-03-23T01:25:37;99309.81;;;4.68;100.00
6500;BME280;3283;52.330;9.772;2024-03-23T01:28:02;99307.25;;;4.66;100.00
6500;BME280;3283;52.330;9.772;2024-03-23T01:30:28;99306.38;;;4.64;100.00
6500;BME280;3283;52.330;9.772;2024-03-23T01:32:53;99304.63;;;4.65;100.00
6500;BME280;3283;52.330;9.772;2024-03-23T01:35:19;99297.75;;;4.59;100.00
6500;BME280;3283;52.330;9.772;2024-03-23T01:37:44;99296.03;;;4.60;100.00
6500;BME280;3283;52.330;9.772;2024-03-23T01:40:10;99294.25;;;4.62;100.00
6500;BME280;3283;52.330;9.772;2024-03-23T01:42:39;99281.31;;;4.54;100.00
6500;BME280;3283;52.330;9.772;2024-03-23T01:45:07;99283.78;;;4.65;100.00
6500;BME280;3283;52.330;9.772;2024-03-23T01:47:32;99280.31;;;4.67;100.00
6500;BME280;3283;52.330;9.772;2024-03-23T01:49:58;99288.22;;;4.58;100.00
6500;BME280;3283;52.330;9.772;2024-03-23T01:52:26;99283.94;;;4.50;100.00
6500;BME280;3283;52.330;9.772;2024-03-23T01:54:53;99280.53;;;4.45;100.00
6500;BME280;3283;52.330;9.772;2024-03-23T01:57:19;99277.91;;;4.46;100.00
6500;BME280;3283;52.330;9.772;2024-03-23T01:59:46;99278.78;;;4.47;100.00
6500;BME280;3283;52.330;9.772;2024-03-23T02:02:12;99273.56;;;4.47;100.00
6500;BME280;3283;52.330;9.772;2024-03-23T02:04:38;99273.59;;;4.45;100.00
6500;BME280;3283;52.330;9.772;2024-03-23T02:07:04;99278.78;;;4.47;100.00
6500;BME280;3283;52.330;9.772;2024-03-23T02:09:31;99264.03;;;4.46;100.00
6500;BME280;3283;52.330;9.772;2024-03-23T02:11:57;99254.50;;;4.45;100.00
6500;BME280;3283;52.330;9.772;2024-03-23T02:14:23;99264.03;;;4.43;100.00
6500;BME280;3283;52.330;9.772;2024-03-23T02:16:48;99259.72;;;4.45;100.00
6500;BME280;3283;52.330;9.772;2024-03-23T02:19:13;99256.28;;;4.36;100.00
6500;BME280;3283;52.330;9.772;2024-03-23T02:21:39;99246.75;;;4.35;100.00
6500;BME280;3283;52.330;9.772;2024-03-23T02:24:04;99253.69;;;4.36;100.00
6500;BME280;3283;52.330;9.772;2024-03-23T02:26:30;99245.06;;;4.31;100.00
6500;BME280;3283;52.330;9.772;2024-03-23T02:28:55;99234.66;;;4.30;100.00
6500;BME280;3283;52.330;9.772;2024-03-23T02:31:21;99240.72;;;4.33;100.00
6500;BME280;3283;52.330;9.772;2024-03-23T02:33:46;99236.41;;;4.31;100.00
6500;BME280;3283;52.330;9.772;2024-03-23T02:36:12;99230.38;;;4.24;100.00
6500;BME280;3283;52.330;9.772;2024-03-23T02:38:37;99224.25;;;4.28;100.00
6500;BME280;3283;52.330;9.772;2024-03-23T02:41:05;99221.66;;;4.28;100.00
6500;BME280;3283;52.330;9.772;2024-03-23T02:43:31;99225.19;;;4.21;100.00
6500;BME280;3283;52.330;9.772;2024-03-23T02:45:57;99217.53;;;4.09;100.00
6500;BME280;3283;52.330;9.772;2024-03-23T02:48:22;99223.59;;;4.09;100.00
6500;BME280;3283;52.330;9.772;2024-03-23T02:50:48;99210.53;;;4.12;100.00
6500;BME280;3283;52.330;9.772;2024-03-23T02:53:15;99206.09;;;4.24;100.00
6500;BME280;3283;52.330;9.772;2024-03-23T02:55:40;99194.69;;;4.34;100.00
6500;BME280;3283;52.330;9.772;2024-03-23T02:58:05;99206.00;;;4.31;100.00
6500;BME280;3283;52.330;9.772;2024-03-23T03:00:31;99201.72;;;4.26;100.00
6500;BME280;3283;52.330;9.772;2024-03-23T03:02:56;99211.28;;;4.25;100.00
6500;BME280;3283;52.330;9.772;2024-03-23T03:05:21;99215.63;;;4.22;100.00
6500;BME280;3283;52.330;9.772;2024-03-23T03:07:47;99207.03;;;4.17;100.00
6500;BME280;3283;52.330;9.772;2024-03-23T03:10:13;99203.47;;;4.22;100.00
6500;BME280;3283;52.330;9.772;2024-03-23T03:12:38;99201.78;;;4.20;100.00
6500;BME280;3283;52.330;9.772;2024-03-23T03:15:04;99199.16;;;4.21;100.00
6500;BME280;3283;52.330;9.772;2024-03-23T03:17:30;99194.81;;;4.22;100.00
6500;BME280;3283;52.330;9.772;2024-03-23T03:19:56;99189.59;;;4.25;100.00
6500;BME280;3283;52.330;9.772;2024-03-23T03:22:24;99193.94;;;4.24;100.00
6500;BME280;3283;52.330;9.772;2024-03-23T03:24:50;99188.97;;;4.00;100.00
6500;BME280;3283;52.330;9.772;2024-03-23T03:27:15;99183.75;;;4.00;100.00
6500;BME280;3283;52.330;9.772;2024-03-23T03:29:40;99171.66;;;3.96;100.00
6500;BME280;3283;52.330;9.772;2024-03-23T03:32:06;99182.88;;;4.01;100.00
6500;BME280;3283;52.330;9.772;2024-03-23T03:34:31;99176.00;;;3.95;100.00
6500;BME280;3283;52.330;9.772;2024-03-23T03:36:57;99188.06;;;4.04;100.00
6500;BME280;3283;52.330;9.772;2024-03-23T03:39:23;99195.97;;;3.95;100.00
6500;BME280;3283;52.330;9.772;2024-03-23T03:41:50;99189.91;;;3.91;100.00
6500;BME280;3283;52.330;9.772;2024-03-23T03:44:16;99177.78;;;3.90;100.00
6500;BME280;3283;52.330;9.772;2024-03-23T03:46:41;99185.66;;;3.79;100.00
6500;BME280;3283;52.330;9.772;2024-03-23T03:49:06;99185.66;;;3.79;100.00
6500;BME280;3283;52.330;9.772;2024-03-23T03:51:32;99183.00;;;3.87;100.00
6500;BME280;3283;52.330;9.772;2024-03-23T03:53:57;99178.69;;;3.84;100.00
6500;BME280;3283;52.330;9.772;2024-03-23T03:56:22;99174.38;;;3.80;100.00
6500;BME280;3283;52.330;9.772;2024-03-23T03:58:48;99176.00;;;3.95;100.00
6500;BME280;3283;52.330;9.772;2024-03-23T04:01:14;99171.59;;;4.03;100.00
6500;BME280;3283;52.330;9.772;2024-03-23T04:03:39;99176.72;;;4.08;100.00
6500;BME280;3283;52.330;9.772;2024-03-23T04:06:11;99175.00;;;4.07;100.00
6500;BME280;3283;52.330;9.772;2024-03-23T04:08:37;99175.97;;;3.98;100.00
6500;BME280;3283;52.330;9.772;2024-03-23T04:11:02;99169.50;;;3.42;100.00
6500;BME280;3283;52.330;9.772;2024-03-23T04:13:27;99167.66;;;3.56;100.00
6500;BME280;3283;52.330;9.772;2024-03-23T04:15:56;99163.25;;;3.65;100.00
6500;BME280;3283;52.330;9.772;2024-03-23T04:18:22;99162.44;;;3.60;100.00
6500;BME280;3283;52.330;9.772;2024-03-23T04:20:51;99169.31;;;3.68;100.00
6500;BME280;3283;52.330;9.772;2024-03-23T04:23:17;99166.72;;;3.65;100.00
6500;BME280;3283;52.330;9.772;2024-03-23T04:25:42;99165.84;;;3.65;100.00
6500;BME280;3283;52.330;9.772;2024-03-23T04:28:08;99159.06;;;3.47;100.00
6500;BME280;3283;52.330;9.772;2024-03-23T04:30:34;99159.00;;;3.54;100.00
6500;BME280;3283;52.330;9.772;2024-03-23T04:32:59;99145.22;;;3.46;100.00
6500;BME280;3283;52.330;9.772;2024-03-23T04:35:26;99149.69;;;3.26;100.00
6500;BME280;3283;52.330;9.772;2024-03-23T04:37:51;99147.19;;;3.12;100.00
6500;BME280;3283;52.330;9.772;2024-03-23T04:40:24;99137.72;;;3.05;100.00
6500;BME280;3283;52.330;9.772;2024-03-23T04:42:49;99139.41;;;3.12;100.00
6500;BME280;3283;52.330;9.772;2024-03-23T04:45:14;99138.50;;;3.18;100.00
6500;BME280;3283;52.330;9.772;2024-03-23T04:47:40;99124.63;;;3.19;100.00
6500;BME280;3283;52.330;9.772;2024-03-23T04:50:06;99128.03;;;3.27;100.00
6500;BME280;3283;52.330;9.772;2024-03-23T04:52:31;99121.88;;;3.36;100.00
6500;BME280;3283;52.330;9.772;2024-03-23T04:54:56;99117.47;;;3.44;100.00
6500;BME280;3283;52.330;9.772;2024-03-23T04:57:22;99119.16;;;3.49;100.00
6500;BME280;3283;52.330;9.772;2024-03-23T04:59:48;99130.50;;;3.41;100.00
6500;BME280;3283;52.330;9.772;2024-03-23T05:02:14;99125.31;;;3.41;100.00
6500;BME280;3283;52.330;9.772;2024-03-23T05:04:40;99127.97;;;3.30;100.00
6500;BME280;3283;52.330;9.772;2024-03-23T05:07:06;99118.47;;;3.27;100.00
6500;BME280;3283;52.330;9.772;2024-03-23T05:09:31;99125.50;;;3.18;100.00
6500;BME280;3283;52.330;9.772;2024-03-23T05:11:59;99131.00;;;2.66;100.00
6500;BME280;3283;52.330;9.772;2024-03-23T05:14:25;99125.94;;;2.32;100.00
6500;BME280;3283;52.330;9.772;2024-03-23T05:16:51;99119.13;;;2.13;100.00
6500;BME280;3283;52.330;9.772;2024-03-23T05:19:16;99119.00;;;2.37;100.00
6500;BME280;3283;52.330;9.772;2024-03-23T05:21:42;99117.25;;;2.47;100.00
6500;BME280;3283;52.330;9.772;2024-03-23T05:24:08;99116.25;;;2.72;100.00
6500;BME280;3283;52.330;9.772;2024-03-23T05:26:34;99113.75;;;2.54;100.00
6500;BME280;3283;52.330;9.772;2024-03-23T05:29:01;99112.84;;;2.60;100.00
6500;BME280;3283;52.330;9.772;2024-03-23T05:31:30;99116.03;;;3.03;100.00
6500;BME280;3283;52.330;9.772;2024-03-23T05:33:56;99123.06;;;2.93;100.00
6500;BME280;3283;52.330;9.772;2024-03-23T05:36:21;99116.16;;;2.88;100.00
6500;BME280;3283;52.330;9.772;2024-03-23T05:38:47;99117.97;;;2.75;100.00
6500;BME280;3283;52.330;9.772;2024-03-23T05:41:13;99120.63;;;2.64;100.00
6500;BME280;3283;52.330;9.772;2024-03-23T05:43:39;99124.03;;;2.72;100.00
6500;BME280;3283;52.330;9.772;2024-03-23T05:46:04;99121.41;;;2.79;100.00
6500;BME280;3283;52.330;9.772;2024-03-23T05:48:36;99124.81;;;2.87;100.00
6500;BME280;3283;52.330;9.772;2024-03-23T05:51:02;99124.78;;;2.97;100.00
6500;BME280;3283;52.330;9.772;2024-03-23T05:53:28;99118.63;;;3.11;100.00
6500;BME280;3283;52.330;9.772;2024-03-23T05:56:02;99115.09;;;3.16;100.00
6500;BME280;3283;52.330;9.772;2024-03-23T05:58:32;99102.25;;;2.95;100.00
6500;BME280;3283;52.330;9.772;2024-03-23T06:00:58;99092.72;;;2.95;100.00
6500;BME280;3283;52.330;9.772;2024-03-23T06:03:26;99085.78;;;2.99;100.00
6500;BME280;3283;52.330;9.772;2024-03-23T06:05:51;99097.00;;;3.06;100.00
6500;BME280;3283;52.330;9.772;2024-03-23T06:08:18;99097.72;;;3.21;100.00
6500;BME280;3283;52.330;9.772;2024-03-23T06:10:43;99089.91;;;3.26;100.00
6500;BME280;3283;52.330;9.772;2024-03-23T06:13:08;99085.50;;;3.31;100.00
6500;BME280;3283;52.330;9.772;2024-03-23T06:15:34;99097.66;;;3.29;100.00
6500;BME280;3283;52.330;9.772;2024-03-23T06:18:03;99097.66;;;3.29;100.00
6500;BME280;3283;52.330;9.772;2024-03-23T06:20:29;99097.72;;;3.24;100.00
6500;BME280;3283;52.330;9.772;2024-03-23T06:22:54;99098.59;;;3.25;100.00
6500;BME280;3283;52.330;9.772;2024-03-23T06:25:20;99093.38;;;3.25;100.00
6500;BME280;3283;52.330;9.772;2024-03-23T06:27:45;99085.53;;;3.29;100.00
6500;BME280;3283;52.330;9.772;2024-03-23T06:30:11;99090.66;;;3.39;100.00
6500;BME280;3283;52.330;9.772;2024-03-23T06:32:36;99093.16;;;3.49;100.00
6500;BME280;3283;52.330;9.772;2024-03-23T06:35:02;99104.38;;;3.56;100.00
6500;BME280;3283;52.330;9.772;2024-03-23T06:37:34;99106.91;;;3.62;100.00
6500;BME280;3283;52.330;9.772;2024-03-23T06:39:59;99107.81;;;3.58;100.00
6500;BME280;3283;52.330;9.772;2024-03-23T06:42:25;99112.16;;;3.57;100.00
6500;BME280;3283;52.330;9.772;2024-03-23T06:44:50;99111.38;;;3.48;100.00
6500;BME280;3283;52.330;9.772;2024-03-23T06:47:16;99118.34;;;3.43;100.00
6500;BME280;3283;52.330;9.772;2024-03-23T06:49:41;99117.34;;;3.59;100.00
6500;BME280;3283;52.330;9.772;2024-03-23T06:52:07;99103.31;;;3.77;100.00
6500;BME280;3283;52.330;9.772;2024-03-23T06:54:32;99105.06;;;3.75;100.00
6500;BME280;3283;52.330;9.772;2024-03-23T06:56:57;99105.94;;;3.75;100.00
6500;BME280;3283;52.330;9.772;2024-03-23T06:59:23;99097.25;;;3.73;100.00
6500;BME280;3283;52.330;9.772;2024-03-23T07:01:48;99097.22;;;3.81;100.00
6500;BME280;3283;52.330;9.772;2024-03-23T07:04:13;99105.88;;;3.78;100.00
6500;BME280;3283;52.330;9.772;2024-03-23T07:06:43;99117.09;;;3.85;100.00
6500;BME280;3283;52.330;9.772;2024-03-23T07:09:09;99112.81;;;3.79;100.00
6500;BME280;3283;52.330;9.772;2024-03-23T07:11:34;99097.25;;;3.73;100.00
6500;BME280;3283;52.330;9.772;2024-03-23T07:14:00;99091.94;;;3.85;100.00
6500;BME280;3283;52.330;9.772;2024-03-23T07:16:26;99098.78;;;3.94;100.00
6500;BME280;3283;52.330;9.772;2024-03-23T07:18:52;99101.31;;;4.03;100.00
6500;BME280;3283;52.330;9.772;2024-03-23T07:21:17;99109.91;;;4.08;100.00
6500;BME280;3283;52.330;9.772;2024-03-23T07:23:43;99105.53;;;4.12;100.00
6500;BME280;3283;52.330;9.772;2024-03-23T07:26:11;99111.50;;;4.22;100.00
6500;BME280;3283;52.330;9.772;2024-03-23T07:28:37;99109.72;;;4.25;100.00
6500;BME280;3283;52.330;9.772;2024-03-23T07:31:08;99099.25;;;4.28;100.00
6500;BME280;3283;52.330;9.772;2024-03-23T07:33:35;99101.91;;;4.25;100.00
6500;BME280;3283;52.330;9.772;2024-03-23T07:36:01;99106.34;;;4.17;100.00
6500;BME280;3283;52.330;9.772;2024-03-23T07:38:31;99102.78;;;4.23;100.00
6500;BME280;3283;52.330;9.772;2024-03-23T07:41:06;99110.84;;;4.04;100.00
6500;BME280;3283;52.330;9.772;2024-03-23T07:43:32;99099.81;;;3.78;100.00
6500;BME280;3283;52.330;9.772;2024-03-23T07:45:58;99107.72;;;3.69;100.00
6500;BME280;3283;52.330;9.772;2024-03-23T07:48:24;99103.25;;;3.80;100.00
6500;BME280;3283;52.330;9.772;2024-03-23T07:51:07;99111.94;;;3.80;100.00
6500;BME280;3283;52.330;9.772;2024-03-23T07:53:33;99116.28;;;3.78;100.00
6500;BME280;3283;52.330;9.772;2024-03-23T07:56:04;99111.78;;;3.97;100.00
6500;BME280;3283;52.330;9.772;2024-03-23T07:58:30;99114.47;;;3.86;100.00
6500;BME280;3283;52.330;9.772;2024-03-23T08:00:56;99110.13;;;3.87;100.00
6500;BME280;3283;52.330;9.772;2024-03-23T08:03:22;99117.97;;;3.85;100.00
6500;BME280;3283;52.330;9.772;2024-03-23T08:05:48;99124.97;;;3.77;100.00
6500;BME280;3283;52.330;9.772;2024-03-23T08:08:13;99117.19;;;3.76;100.00
6500;BME280;3283;52.330;9.772;2024-03-23T08:10:50;99111.09;;;3.81;100.00
6500;BME280;3283;52.330;9.772;2024-03-23T08:13:15;99112.03;;;3.71;100.00
6500;BME280;3283;52.330;9.772;2024-03-23T08:15:41;99113.81;;;3.68;100.00
6500;BME280;3283;52.330;9.772;2024-03-23T08:18:07;99109.47;;;3.65;100.00
6500;BME280;3283;52.330;9.772;2024-03-23T08:20:32;99110.19;;;3.84;100.00
6500;BME280;3283;52.330;9.772;2024-03-23T08:22:57;99106.94;;;3.61;100.00
6500;BME280;3283;52.330;9.772;2024-03-23T08:25:23;99114.78;;;3.56;100.00
6500;BME280;3283;52.330;9.772;2024-03-23T08:27:49;99108.69;;;3.57;100.00
6500;BME280;3283;52.330;9.772;2024-03-23T08:30:15;99107.66;;;3.76;100.00
6500;BME280;3283;52.330;9.772;2024-03-23T08:32:41;99111.09;;;3.81;100.00
6500;BME280;3283;52.330;9.772;2024-03-23T08:35:08;99109.09;;;4.05;100.00
6500;BME280;3283;52.330;9.772;2024-03-23T08:37:33;99117.72;;;4.10;100.00
6500;BME280;3283;52.330;9.772;2024-03-23T08:39:59;99121.38;;;3.92;100.00
6500;BME280;3283;52.330;9.772;2024-03-23T08:42:24;99112.75;;;3.89;100.00
6500;BME280;3283;52.330;9.772;2024-03-23T08:44:49;99108.19;;;4.09;100.00
6500;BME280;3283;52.330;9.772;2024-03-23T08:47:15;99097.09;;;4.62;100.00
6500;BME280;3283;52.330;9.772;2024-03-23T08:49:41;99102.09;;;4.79;100.00
6500;BME280;3283;52.330;9.772;2024-03-23T08:52:07;99094.59;;;5.16;100.00
6500;BME280;3283;52.330;9.772;2024-03-23T08:54:32;99099.53;;;5.83;100.00
6500;BME280;3283;52.330;9.772;2024-03-23T08:56:58;99092.78;;;5.21;100.00
6500;BME280;3283;52.330;9.772;2024-03-23T08:59:23;99098.22;;;4.43;100.00
6500;BME280;3283;52.330;9.772;2024-03-23T09:01:49;99099.81;;;4.55;100.00
6500;BME280;3283;52.330;9.772;2024-03-23T09:04:14;99099.25;;;4.93;100.00
6500;BME280;3283;52.330;9.772;2024-03-23T09:06:42;99100.97;;;4.97;100.00
6500;BME280;3283;52.330;9.772;2024-03-23T09:09:07;99093.38;;;4.79;100.00
6500;BME280;3283;52.330;9.772;2024-03-23T09:11:33;99104.34;;;4.40;100.00
6500;BME280;3283;52.330;9.772;2024-03-23T09:13:58;99104.53;;;4.24;100.00
6500;BME280;3283;52.330;9.772;2024-03-23T09:16:24;99109.66;;;4.30;100.00
6500;BME280;3283;52.330;9.772;2024-03-23T09:18:49;99107.06;;;4.28;100.00
6500;BME280;3283;52.330;9.772;2024-03-23T09:21:14;99109.56;;;4.39;100.00
6500;BME280;3283;52.330;9.772;2024-03-23T09:23:43;99109.34;;;4.56;100.00
6500;BME280;3283;52.330;9.772;2024-03-23T09:26:08;99106.81;;;4.50;100.00
6500;BME280;3283;52.330;9.772;2024-03-23T09:28:34;99112.59;;;4.73;100.00
6500;BME280;3283;52.330;9.772;2024-03-23T09:31:06;99110.16;;;4.61;100.00
6500;BME280;3283;52.330;9.772;2024-03-23T09:33:41;99100.47;;;4.69;100.00
6500;BME280;3283;52.330;9.772;2024-03-23T09:36:07;99103.28;;;4.55;100.00
6500;BME280;3283;52.330;9.772;2024-03-23T09:38:33;99101.53;;;4.56;100.00
6500;BME280;3283;52.330;9.772;2024-03-23T09:40:59;99111.88;;;4.62;100.00
6500;BME280;3283;52.330;9.772;2024-03-23T09:43:25;99077.13;;;4.63;100.00
6500;BME280;3283;52.330;9.772;2024-03-23T09:45:53;99089.50;;;4.46;100.00
6500;BME280;3283;52.330;9.772;2024-03-23T09:48:18;99074.53;;;4.61;100.00
6500;BME280;3283;52.330;9.772;2024-03-23T09:50:45;99092.03;;;4.52;100.00
6500;BME280;3283;52.330;9.772;2024-03-23T09:53:12;99094.56;;;4.56;100.00
6500;BME280;3283;52.330;9.772;2024-03-23T09:55:39;99091.63;;;4.82;100.00
6500;BME280;3283;52.330;9.772;2024-03-23T09:58:05;99085.53;;;5.39;100.00
6500;BME280;3283;52.330;9.772;2024-03-23T10:00:34;99094.13;;;5.42;100.00
6500;BME280;3283;52.330;9.772;2024-03-23T10:03:01;99077.38;;;5.05;100.00
6500;BME280;3283;52.330;9.772;2024-03-23T10:05:30;99082.09;;;5.35;100.00
6500;BME280;3283;52.330;9.772;2024-03-23T10:10:40;99078.38;;;5.50;100.00
6500;BME280;3283;52.330;9.772;2024-03-23T10:13:05;99078.50;;;5.44;100.00
6500;BME280;3283;52.330;9.772;2024-03-23T10:15:34;99083.97;;;5.29;100.00
6500;BME280;3283;52.330;9.772;2024-03-23T10:18:18;99087.41;;;5.31;100.00
6500;BME280;3283;52.330;9.772;2024-03-23T10:20:51;99071.00;;;5.24;100.00
6500;BME280;3283;52.330;9.772;2024-03-23T10:23:17;99080.59;;;5.20;100.00
6500;BME280;3283;52.330;9.772;2024-03-23T10:25:43;99073.88;;;5.58;100.00
6500;BME280;3283;52.330;9.772;2024-03-23T10:28:08;99067.13;;;5.46;97.77
6500;BME280;3283;52.330;9.772;2024-03-23T10:30:35;99071.19;;;5.64;95.99
6500;BME280;3283;52.330;9.772;2024-03-23T10:33:10;99059.28;;;5.48;90.11
6500;BME280;3283;52.330;9.772;2024-03-23T10:35:38;99057.50;;;5.99;88.56
6500;BME280;3283;52.330;9.772;2024-03-23T10:38:05;99062.09;;;5.84;87.07
6500;BME280;3283;52.330;9.772;2024-03-23T10:40:31;99063.63;;;5.97;83.88
6500;BME280;3283;52.330;9.772;2024-03-23T10:42:59;99060.38;;;6.29;82.88
6500;BME280;3283;52.330;9.772;2024-03-23T10:45:25;99058.50;;;6.34;83.03
6500;BME280;3283;52.330;9.772;2024-03-23T10:47:51;99044.44;;;6.41;84.20
6500;BME280;3283;52.330;9.772;2024-03-23T10:50:17;99041.75;;;6.02;85.15
6500;BME280;3283;52.330;9.772;2024-03-23T10:52:47;99074.03;;;4.96;92.89
6500;BME280;3283;52.330;9.772;2024-03-23T10:55:15;99081.09;;;4.25;99.77
6500;BME280;3283;52.330;9.772;2024-03-23T10:57:49;99095.63;;;3.65;100.00
6500;BME280;3283;52.330;9.772;2024-03-23T11:00:17;99083.88;;;4.10;100.00
6500;BME280;3283;52.330;9.772;2024-03-23T11:02:42;99072.66;;;4.71;100.00
6500;BME280;3283;52.330;9.772;2024-03-23T11:07:53;99055.81;;;5.95;96.52
6500;BME280;3283;52.330;9.772;2024-03-23T11:10:25;99060.75;;;5.64;97.71
6500;BME280;3283;52.330;9.772;2024-03-23T11:12:53;99057.50;;;5.99;93.17
6500;BME280;3283;52.330;9.772;2024-03-23T11:15:18;99068.41;;;6.18;88.08
6500;BME280;3283;52.330;9.772;2024-03-23T11:18:03;99074.66;;;5.65;88.41
6500;BME280;3283;52.330;9.772;2024-03-23T11:20:32;99115.66;;;5.03;96.68
6500;BME280;3283;52.330;9.772;2024-03-23T11:22:59;99123.53;;;1.70;100.00
6500;BME280;3283;52.330;9.772;2024-03-23T11:25:26;99149.47;;;1.45;100.00
6500;BME280;3283;52.330;9.772;2024-03-23T11:27:53;99143.41;;;1.40;100.00
6500;BME280;3283;52.330;9.772;2024-03-23T11:30:23;99123.56;;;1.24;100.00
6500;BME280;3283;52.330;9.772;2024-03-23T11:32:52;99106.25;;;1.58;100.00
6500;BME280;3283;52.330;9.772;2024-03-23T11:38:09;99075.50;;;2.81;100.00
6500;BME280;3283;52.330;9.772;2024-03-23T11:40:36;99053.75;;;3.88;100.00
6500;BME280;3283;52.330;9.772;2024-03-23T11:43:04;99057.16;;;3.96;100.00
6500;BME280;3283;52.330;9.772;2024-03-23T11:45:37;99044.72;;;4.19;100.00
6500;BME280;3283;52.330;9.772;2024-03-23T11:50:32;99052.88;;;3.89;100.00
6500;BME280;3283;52.330;9.772;2024-03-23T11:53:16;56484.91;;;-143.80;100.00
6500;BME280;3283;52.330;9.772;2024-03-23T11:55:53;56484.91;;;-143.80;100.00
6500;BME280;3283;52.330;9.772;2024-03-23T11:58:19;99107.94;;;3.47;100.00
6500;BME280;3283;52.330;9.772;2024-03-23T12:03:16;99120.16;;;3.35;100.00
6500;BME280;3283;52.330;9.772;2024-03-23T12:05:48;99106.09;;;3.57;100.00
6500;BME280;3283;52.330;9.772;2024-03-23T12:08:18;99108.50;;;3.78;100.00
6500;BME280;3283;52.330;9.772;2024-03-23T12:10:46;99098.13;;;3.75;100.00
6500;BME280;3283;52.330;9.772;2024-03-23T12:13:14;99102.31;;;3.87;100.00
6500;BME280;3283;52.330;9.772;2024-03-23T12:15:40;99105.25;;;3.55;100.00
6500;BME280;3283;52.330;9.772;2024-03-23T12:18:07;99100.72;;;3.77;100.00
6500;BME280;3283;52.330;9.772;2024-03-23T12:20:32;99090.59;;;3.45;100.00
6500;BME280;3283;52.330;9.772;2024-03-23T12:23:10;99097.88;;;3.98;100.00
6500;BME280;3283;52.330;9.772;2024-03-23T12:25:37;99100.63;;;4.57;100.00
6500;BME280;3283;52.330;9.772;2024-03-23T12:28:03;99092.50;;;5.38;100.00
6500;BME280;3283;52.330;9.772;2024-03-23T12:30:28;99084.63;;;4.84;100.00
6500;BME280;3283;52.330;9.772;2024-03-23T12:32:53;99090.78;;;4.80;100.00
6500;BME280;3283;52.330;9.772;2024-03-23T12:35:19;99080.16;;;4.29;100.00
6500;BME280;3283;52.330;9.772;2024-03-23T12:37:45;99092.06;;;4.49;100.00
6500;BME280;3283;52.330;9.772;2024-03-23T12:40:10;99110.41;;;4.41;100.00
6500;BME280;3283;52.330;9.772;2024-03-23T12:42:36;99106.66;;;4.62;100.00
6500;BME280;3283;52.330;9.772;2024-03-23T12:45:02;99098.38;;;4.29;100.00
6500;BME280;3283;52.330;9.772;2024-03-23T12:47:30;99108.97;;;4.17;100.00
6500;BME280;3283;52.330;9.772;2024-03-23T12:49:55;99107.00;;;4.34;100.00
6500;BME280;3283;52.330;9.772;2024-03-23T12:52:21;99115.94;;;4.12;100.00
6500;BME280;3283;52.330;9.772;2024-03-23T12:54:49;99118.75;;;3.95;100.00
6500;BME280;3283;52.330;9.772;2024-03-23T12:57:14;99105.72;;;3.97;100.00
6500;BME280;3283;52.330;9.772;2024-03-23T12:59:39;99086.72;;;3.89;100.00
6500;BME280;3283;52.330;9.772;2024-03-23T13:02:05;99089.53;;;4.44;100.00
6500;BME280;3283;52.330;9.772;2024-03-23T13:04:32;99079.94;;;4.48;100.00
6500;BME280;3283;52.330;9.772;2024-03-23T13:06:57;99089.31;;;4.61;100.00
6500;BME280;3283;52.330;9.772;2024-03-23T13:09:23;99088.03;;;4.89;100.00
6500;BME280;3283;52.330;9.772;2024-03-23T13:11:48;99080.13;;;4.95;100.00
6500;BME280;3283;52.330;9.772;2024-03-23T13:14:13;99078.69;;;5.32;100.00
6500;BME280;3283;52.330;9.772;2024-03-23T13:16:41;99080.91;;;5.55;100.00
6500;BME280;3283;52.330;9.772;2024-03-23T13:19:07;99073.66;;;6.18;100.00
6500;BME280;3283;52.330;9.772;2024-03-23T13:21:32;99065.84;;;6.17;100.00
6500;BME280;3283;52.330;9.772;2024-03-23T13:23:57;99066.81;;;5.65;100.00
6500;BME280;3283;52.330;9.772;2024-03-23T13:26:23;99063.16;;;5.24;100.00
6500;BME280;3283;52.330;9.772;2024-03-23T13:28:48;99065.69;;;4.73;100.00
6500;BME280;3283;52.330;9.772;2024-03-23T13:31:14;99067.91;;;5.01;100.00
6500;BME280;3283;52.330;9.772;2024-03-23T13:33:39;99069.53;;;5.08;100.00
6500;BME280;3283;52.330;9.772;2024-03-23T13:36:05;99057.66;;;4.85;100.00
6500;BME280;3283;52.330;9.772;2024-03-23T13:38:30;99059.09;;;5.08;100.00
6500;BME280;3283;52.330;9.772;2024-03-23T13:40:58;99051.25;;;5.09;100.00
6500;BME280;3283;52.330;9.772;2024-03-23T13:43:24;99049.09;;;5.33;100.00
6500;BME280;3283;52.330;9.772;2024-03-23T13:45:54;99050.69;;;5.41;100.00
6500;BME280;3283;52.330;9.772;2024-03-23T13:48:20;99055.63;;;5.57;100.00
6500;BME280;3283;52.330;9.772;2024-03-23T13:50:47;99060.81;;;5.60;100.00
6500;BME280;3283;52.330;9.772;2024-03-23T13:53:15;99063.31;;;5.66;97.89
6500;BME280;3283;52.330;9.772;2024-03-23T13:55:47;99064.34;;;5.57;96.71
6500;BME280;3283;52.330;9.772;2024-03-23T13:58:15;99054.91;;;5.48;98.90
6500;BME280;3283;52.330;9.772;2024-03-23T14:00:41;99068.69;;;5.58;98.78
6500;BME280;3283;52.330;9.772;2024-03-23T14:03:10;99065.78;;;5.24;98.29
6500;BME280;3283;52.330;9.772;2024-03-23T14:05:36;99063.25;;;4.61;96.66
6500;BME280;3283;52.330;9.772;2024-03-23T14:08:08;99073.63;;;4.64;99.45
6500;BME280;3283;52.330;9.772;2024-03-23T14:10:33;99069.78;;;4.89;99.76
6500;BME280;3283;52.330;9.772;2024-03-23T14:12:59;99063.19;;;5.21;98.42
6500;BME280;3283;52.330;9.772;2024-03-23T14:15:28;99076.50;;;5.04;96.86
6500;BME280;3283;52.330;9.772;2024-03-23T14:17:53;99063.19;;;5.22;95.33
6500;BME280;3283;52.330;9.772;2024-03-23T14:20:22;99068.31;;;5.27;95.33
6500;BME280;3283;52.330;9.772;2024-03-23T14:22:49;99065.97;;;5.63;95.28
6500;BME280;3283;52.330;9.772;2024-03-23T14:25:15;99066.34;;;5.89;94.25